createdAt,value
2022-08-03T00:02:15.901Z,20.21
2022-08-03T00:04:43.530Z,20.11
2022-08-03T00:07:10.634Z,20.07
2022-08-03T00:09:37.694Z,19.98
2022-08-03T00:12:05.190Z,19.86
2022-08-03T00:14:32.292Z,19.86
2022-08-03T00:16:59.387Z,19.94
2022-08-03T00:19:26.741Z,19.90
2022-08-03T00:21:53.805Z,19.89
2022-08-03T00:24:21.023Z,19.87
2022-08-03T00:26:48.396Z,19.85
2022-08-03T00:29:15.531Z,19.85
2022-08-03T00:31:52.581Z,19.97
2022-08-03T00:34:29.154Z,20.09
2022-08-03T00:37:07.505Z,20.13
2022-08-03T00:39:34.874Z,20.36
2022-08-03T00:42:02.639Z,20.64
2022-08-03T00:44:29.826Z,20.79
2022-08-03T00:46:57.207Z,20.93
2022-08-03T00:49:24.305Z,21.08
2022-08-03T00:51:51.409Z,21.23
2022-08-03T00:54:18.770Z,21.35
2022-08-03T00:56:59.586Z,21.44
2022-08-03T00:59:27.859Z,21.35
2022-08-03T01:01:54.953Z,21.50
2022-08-03T01:04:22.105Z,21.68
2022-08-03T01:06:50.843Z,21.51
2022-08-03T01:09:20.665Z,21.33
2022-08-03T01:12:00.157Z,21.35
2022-08-03T01:14:31.675Z,21.26
2022-08-03T01:16:58.708Z,21.31
2022-08-03T01:19:42.444Z,21.33
2022-08-03T01:22:09.811Z,21.26
2022-08-03T01:24:36.928Z,21.13
2022-08-03T01:27:13.223Z,21.23
2022-08-03T01:29:58.333Z,21.18
2022-08-03T01:33:00.126Z,21.15
2022-08-03T01:35:14.479Z,21.07
2022-08-03T01:37:42.673Z,20.92
2022-08-03T01:40:09.978Z,21.07
2022-08-03T01:42:37.414Z,21.01
2022-08-03T01:45:04.640Z,21.01
2022-08-03T01:47:31.770Z,20.88
2022-08-03T01:49:59.136Z,20.79
2022-08-03T01:52:26.366Z,20.75
2022-08-03T01:54:53.461Z,20.65
2022-08-03T01:57:20.808Z,20.60
2022-08-03T01:59:48.661Z,20.56
2022-08-03T02:02:32.307Z,20.53
2022-08-03T02:05:01.330Z,20.40
2022-08-03T02:07:28.414Z,20.50
2022-08-03T02:09:55.740Z,20.51
2022-08-03T02:12:24.086Z,20.46
2022-08-03T02:14:51.214Z,20.35
2022-08-03T02:17:18.321Z,20.29
2022-08-03T02:20:06.202Z,20.24
2022-08-03T02:22:33.273Z,20.21
2022-08-03T02:25:00.346Z,20.18
2022-08-03T02:27:27.737Z,20.13
2022-08-03T02:30:06.031Z,20.24
2022-08-03T02:32:34.748Z,20.28
2022-08-03T02:35:02.610Z,20.23
2022-08-03T02:37:31.247Z,20.14
2022-08-03T02:40:00.926Z,20.14
2022-08-03T02:42:28.850Z,20.17
2022-08-03T02:44:56.636Z,20.14
2022-08-03T02:47:24.022Z,20.12
2022-08-03T02:49:52.327Z,20.07
2022-08-03T02:52:23.583Z,20.08
2022-08-03T02:54:52.318Z,20.08
2022-08-03T02:57:20.108Z,20.09
2022-08-03T02:59:47.230Z,20.21
2022-08-03T03:02:14.770Z,20.22
2022-08-03T03:04:58.084Z,20.17
2022-08-03T03:07:29.640Z,20.10
2022-08-03T03:10:01.058Z,20.10
2022-08-03T03:12:28.173Z,20.08
2022-08-03T03:14:55.545Z,20.10
2022-08-03T03:17:22.629Z,20.13
2022-08-03T03:19:50.031Z,20.09
2022-08-03T03:22:17.691Z,20.12
2022-08-03T03:24:45.883Z,20.06
2022-08-03T03:27:16.653Z,20.12
2022-08-03T03:29:44.408Z,20.17
2022-08-03T03:32:11.503Z,20.08
2022-08-03T03:34:38.583Z,20.17
2022-08-03T03:37:05.919Z,20.29
2022-08-03T03:39:32.991Z,20.23
2022-08-03T03:42:00.306Z,20.29
2022-08-03T03:44:28.677Z,20.27
2022-08-03T03:46:56.483Z,20.23
2022-08-03T03:49:23.686Z,20.26
2022-08-03T03:51:54.954Z,20.32
2022-08-03T03:54:22.055Z,20.34
2022-08-03T03:56:52.924Z,20.54
2022-08-03T03:59:19.986Z,21.35
2022-08-03T04:01:47.114Z,22.37
2022-08-03T04:04:44.359Z,23.27
2022-08-03T04:07:30.121Z,23.76
2022-08-03T04:10:16.064Z,23.39
2022-08-03T04:12:49.934Z,22.85
2022-08-03T04:15:20.967Z,22.39
2022-08-03T04:17:48.087Z,22.16
2022-08-03T04:20:15.184Z,21.97
2022-08-03T04:22:42.539Z,21.82
2022-08-03T04:25:09.736Z,21.62
2022-08-03T04:27:37.188Z,21.59
2022-08-03T04:30:05.353Z,21.66
2022-08-03T04:32:32.918Z,21.67
2022-08-03T04:35:00.042Z,21.77
2022-08-03T04:37:42.569Z,21.85
2022-08-03T04:40:11.007Z,21.76
2022-08-03T04:42:39.534Z,21.94
2022-08-03T04:45:06.861Z,21.93
2022-08-03T04:47:33.946Z,22.13
2022-08-03T04:50:01.921Z,22.15
2022-08-03T04:52:29.040Z,22.18
2022-08-03T04:54:56.510Z,22.25
2022-08-03T04:57:23.843Z,22.33
2022-08-03T05:00:02.601Z,22.51
2022-08-03T05:02:31.417Z,22.58
2022-08-03T05:04:58.664Z,22.40
2022-08-03T05:07:25.822Z,22.45
2022-08-03T05:10:01.594Z,22.55
2022-08-03T05:12:32.759Z,22.70
2022-08-03T05:15:00.939Z,22.84
2022-08-03T05:17:28.578Z,22.94
2022-08-03T05:19:55.960Z,23.06
2022-08-03T05:22:23.326Z,23.04
2022-08-03T05:24:50.469Z,23.21
2022-08-03T05:27:19.346Z,23.16
2022-08-03T05:29:47.061Z,23.31
2022-08-03T05:32:14.364Z,23.64
2022-08-03T05:34:41.486Z,25.22
2022-08-03T05:37:08.983Z,28.11
2022-08-03T05:39:36.283Z,31.19
2022-08-03T05:42:03.450Z,33.71
2022-08-03T05:44:31.756Z,35.10
2022-08-03T05:46:59.342Z,36.31
2022-08-03T05:49:26.500Z,37.86
2022-08-03T05:52:00.090Z,38.56
2022-08-03T05:54:57.162Z,35.52
2022-08-03T05:57:25.565Z,35.74
2022-08-03T05:59:56.411Z,36.41
2022-08-03T06:02:26.659Z,35.85
2022-08-03T06:04:54.174Z,36.73
2022-08-03T06:07:21.267Z,35.83
2022-08-03T06:10:34.008Z,35.05
2022-08-03T06:12:36.125Z,36.96
2022-08-03T06:15:03.949Z,37.82
2022-08-03T06:17:37.765Z,38.69
2022-08-03T06:20:05.880Z,35.27
2022-08-03T06:22:32.949Z,37.91
2022-08-03T06:25:04.891Z,36.84
2022-08-03T06:27:38.126Z,33.57
2022-08-03T06:30:05.562Z,35.58
2022-08-03T06:32:33.664Z,36.25
2022-08-03T06:35:01.094Z,36.48
2022-08-03T06:37:28.899Z,34.12
2022-08-03T06:39:56.006Z,35.42
2022-08-03T06:42:23.462Z,37.24
2022-08-03T06:44:52.455Z,34.61
2022-08-03T06:47:19.563Z,35.93
2022-08-03T06:50:12.665Z,36.38
2022-08-03T06:52:37.782Z,36.86
2022-08-03T06:55:06.266Z,34.96
2022-08-03T06:57:33.386Z,36.00
2022-08-03T07:00:09.401Z,36.86
2022-08-03T07:02:39.903Z,35.85
2022-08-03T07:05:07.515Z,34.82
2022-08-03T07:07:34.652Z,34.36
2022-08-03T07:10:02.871Z,36.13
2022-08-03T07:12:30.243Z,36.19
2022-08-03T07:15:00.819Z,34.89
2022-08-03T07:17:29.549Z,35.19
2022-08-03T07:19:56.985Z,36.62
2022-08-03T07:22:24.159Z,35.66
2022-08-03T07:24:51.528Z,34.64
2022-08-03T07:27:18.625Z,37.04
2022-08-03T07:29:45.758Z,37.00
2022-08-03T07:32:13.099Z,35.86
2022-08-03T07:34:40.238Z,36.80
2022-08-03T07:37:07.406Z,33.72
2022-08-03T07:39:35.129Z,34.80
2022-08-03T07:42:02.219Z,35.06
2022-08-03T07:44:29.329Z,35.37
2022-08-03T07:46:57.407Z,35.03
2022-08-03T07:49:25.437Z,33.50
2022-08-03T07:52:11.104Z,34.67
2022-08-03T07:54:38.570Z,35.71
2022-08-03T07:57:05.690Z,37.05
2022-08-03T07:59:56.600Z,35.41
2022-08-03T08:02:20.211Z,36.76
2022-08-03T08:04:48.993Z,37.80
2022-08-03T08:07:16.095Z,36.58
2022-08-03T08:09:45.453Z,37.49
2022-08-03T08:12:15.424Z,38.03
2022-08-03T08:14:45.742Z,36.41
2022-08-03T08:17:13.520Z,35.93
2022-08-03T08:19:41.488Z,36.69
2022-08-03T08:22:26.526Z,36.80
2022-08-03T08:24:58.933Z,37.20
2022-08-03T08:27:26.620Z,35.77
2022-08-03T08:29:55.433Z,35.76
2022-08-03T08:32:23.540Z,36.07
2022-08-03T08:34:51.060Z,36.43
2022-08-03T08:37:18.218Z,35.69
2022-08-03T08:39:45.341Z,35.01
2022-08-03T08:42:12.754Z,34.81
2022-08-03T08:44:39.928Z,35.42
2022-08-03T08:47:07.006Z,34.57
2022-08-03T08:49:35.144Z,34.66
2022-08-03T08:52:02.929Z,35.21
2022-08-03T08:54:30.041Z,35.59
2022-08-03T08:56:59.290Z,35.08
2022-08-03T08:59:26.490Z,34.67
2022-08-03T09:02:13.844Z,34.25
2022-08-03T09:04:40.957Z,35.01
2022-08-03T09:07:19.546Z,35.71
2022-08-03T09:10:01.309Z,35.45
2022-08-03T09:12:53.279Z,35.50
2022-08-03T09:15:24.807Z,35.17
2022-08-03T09:17:52.955Z,32.25
2022-08-03T09:20:21.192Z,33.55
2022-08-03T09:22:51.252Z,34.74
2022-08-03T09:25:25.596Z,34.27
2022-08-03T09:27:53.468Z,34.98
2022-08-03T09:30:33.821Z,35.37
2022-08-03T09:33:02.923Z,35.32
2022-08-03T09:38:26.176Z,35.38
2022-08-03T09:40:57.462Z,34.42
2022-08-03T09:43:27.699Z,33.10
2022-08-03T09:46:04.455Z,33.57
2022-08-03T09:48:33.269Z,33.95
2022-08-03T09:51:14.308Z,32.85
2022-08-03T09:53:59.178Z,31.79
2022-08-03T09:56:40.446Z,32.36
2022-08-03T09:59:08.084Z,32.95
2022-08-03T10:01:35.774Z,32.81
2022-08-03T10:04:05.122Z,33.44
2022-08-03T10:06:32.525Z,34.48
2022-08-03T10:09:12.510Z,33.78
2022-08-03T10:11:42.026Z,32.45
2022-08-03T10:14:11.563Z,31.04
2022-08-03T10:16:39.172Z,31.77
2022-08-03T10:19:07.084Z,31.98
2022-08-03T10:21:34.951Z,32.22
2022-08-03T10:24:02.596Z,32.49
2022-08-03T10:26:31.418Z,32.01
2022-08-03T10:28:59.046Z,32.16
2022-08-03T10:31:26.143Z,31.71
2022-08-03T10:33:53.592Z,31.74
2022-08-03T10:36:22.452Z,32.30
2022-08-03T10:38:52.859Z,32.69
2022-08-03T10:41:21.300Z,33.01
2022-08-03T10:43:51.478Z,33.05
2022-08-03T10:46:19.229Z,32.93
2022-08-03T10:48:46.670Z,32.58
2022-08-03T10:51:13.752Z,32.89
2022-08-03T10:53:42.493Z,32.65
2022-08-03T10:56:50.683Z,33.03
2022-08-03T10:59:37.691Z,32.93
2022-08-03T11:02:08.337Z,32.30
2022-08-03T11:04:35.476Z,32.00
2022-08-03T11:07:24.281Z,32.30
2022-08-03T11:09:52.648Z,32.44
2022-08-03T11:12:30.321Z,31.97
2022-08-03T11:15:02.760Z,32.44
2022-08-03T11:17:29.973Z,32.78
2022-08-03T11:19:58.505Z,32.39
2022-08-03T11:22:28.220Z,32.01
2022-08-03T11:24:56.368Z,31.79
2022-08-03T11:27:30.890Z,31.53
2022-08-03T11:30:01.846Z,31.75
2022-08-03T11:32:37.857Z,32.25
2022-08-03T11:35:12.727Z,32.32
2022-08-03T11:38:04.412Z,32.32
2022-08-03T11:40:46.225Z,32.72
2022-08-03T11:43:22.253Z,32.84
2022-08-03T11:46:09.026Z,33.26
2022-08-03T11:48:37.177Z,33.64
2022-08-03T11:51:05.457Z,33.07
2022-08-03T11:53:32.585Z,33.71
2022-08-03T11:56:12.992Z,33.95
2022-08-03T11:59:01.774Z,33.98
2022-08-03T12:01:34.088Z,33.89
2022-08-03T12:04:05.257Z,33.81
2022-08-03T12:06:52.346Z,33.57
2022-08-03T12:09:21.171Z,33.81
2022-08-03T12:11:51.053Z,34.37
2022-08-03T12:14:50.729Z,34.66
2022-08-03T12:17:16.769Z,34.60
2022-08-03T12:19:44.692Z,34.99
2022-08-03T12:22:11.840Z,35.35
2022-08-03T12:24:42.613Z,35.26
2022-08-03T12:27:09.984Z,35.16
2022-08-03T12:29:37.084Z,34.25
2022-08-03T12:32:04.321Z,34.27
2022-08-03T12:35:01.961Z,34.59
2022-08-03T12:37:29.646Z,34.76
2022-08-03T12:40:10.181Z,33.68
2022-08-03T12:42:38.337Z,33.94
2022-08-03T12:45:24.161Z,33.95
2022-08-03T12:47:55.230Z,34.05
2022-08-03T12:50:26.123Z,34.11
2022-08-03T12:52:53.263Z,34.42
2022-08-03T12:55:20.975Z,34.65
2022-08-03T12:57:48.598Z,34.19
2022-08-03T13:00:19.888Z,34.42
2022-08-03T13:03:39.401Z,34.10
2022-08-03T13:06:15.918Z,33.85
2022-08-03T13:08:43.790Z,34.47
2022-08-03T13:11:47.654Z,34.54
2022-08-03T13:14:19.652Z,34.50
2022-08-03T13:16:48.139Z,34.47
2022-08-03T13:19:16.144Z,34.61
2022-08-03T13:22:01.825Z,34.69
2022-08-03T13:24:31.924Z,34.61
2022-08-03T13:26:59.531Z,34.08
2022-08-03T13:29:26.643Z,34.20
2022-08-03T13:31:54.020Z,33.74
2022-08-03T13:34:23.817Z,33.32
2022-08-03T13:37:09.363Z,33.35
2022-08-03T13:39:57.881Z,33.59
2022-08-03T13:42:24.502Z,33.36
2022-08-03T13:44:51.868Z,33.61
2022-08-03T13:47:19.954Z,33.45
2022-08-03T13:49:59.454Z,33.19
2022-08-03T13:52:28.235Z,33.23
2022-08-03T13:54:55.358Z,33.55
2022-08-03T13:58:03.796Z,33.49
2022-08-03T14:00:10.044Z,33.10
2022-08-03T14:02:37.561Z,33.26
2022-08-03T14:05:04.874Z,33.72
2022-08-03T14:07:31.972Z,33.68
2022-08-03T14:09:59.457Z,33.37
2022-08-03T14:12:26.575Z,32.82
2022-08-03T14:14:55.179Z,32.83
2022-08-03T14:17:25.486Z,33.20
2022-08-03T14:19:54.101Z,33.11
2022-08-03T14:22:23.546Z,33.15
2022-08-03T14:24:50.918Z,33.08
2022-08-03T14:27:18.671Z,33.23
2022-08-03T14:29:45.766Z,33.33
2022-08-03T14:32:13.701Z,33.08
2022-08-03T14:34:41.034Z,33.27
2022-08-03T14:37:08.225Z,33.12
2022-08-03T14:42:23.659Z,32.97
2022-08-03T14:44:51.018Z,32.98
2022-08-03T14:47:18.527Z,32.76
2022-08-03T14:50:37.134Z,32.42
2022-08-03T14:52:33.370Z,32.42
2022-08-03T14:55:00.476Z,32.40
2022-08-03T14:57:27.767Z,32.64
2022-08-03T14:59:56.610Z,32.74
2022-08-03T15:02:25.199Z,32.54
2022-08-03T15:04:52.747Z,32.56
2022-08-03T15:07:20.873Z,32.71
2022-08-03T15:09:48.207Z,33.03
2022-08-03T15:12:15.365Z,33.28
2022-08-03T15:14:42.756Z,33.18
2022-08-03T15:17:09.898Z,33.18
2022-08-03T15:20:02.036Z,33.31
2022-08-03T15:22:25.315Z,33.14
2022-08-03T15:25:03.157Z,33.11
2022-08-03T15:27:30.546Z,33.05
2022-08-03T15:30:09.520Z,33.32
2022-08-03T15:32:37.803Z,33.21
2022-08-03T15:35:05.179Z,33.36
2022-08-03T15:37:32.378Z,33.34
2022-08-03T15:40:01.003Z,33.33
2022-08-03T15:42:29.333Z,33.25
2022-08-03T15:44:56.554Z,33.28
2022-08-03T15:47:23.971Z,33.43
2022-08-03T15:49:51.042Z,33.45
2022-08-03T15:52:18.129Z,33.31
2022-08-03T15:54:45.508Z,33.44
2022-08-03T15:57:12.591Z,33.48
2022-08-03T15:59:39.746Z,33.27
2022-08-03T16:02:07.122Z,32.89
2022-08-03T16:04:34.606Z,32.89
2022-08-03T16:07:01.728Z,32.29
2022-08-03T16:09:42.001Z,32.29
2022-08-03T16:12:14.579Z,32.65
2022-08-03T16:14:53.386Z,32.78
2022-08-03T16:17:22.081Z,32.70
2022-08-03T16:19:49.666Z,32.59
2022-08-03T16:22:17.496Z,32.40
2022-08-03T16:24:47.141Z,32.28
2022-08-03T16:27:36.771Z,31.97
2022-08-03T16:30:01.965Z,32.13
2022-08-03T16:32:29.081Z,32.38
2022-08-03T16:34:56.146Z,32.49
2022-08-03T16:37:38.050Z,32.54
2022-08-03T16:40:06.762Z,32.49
2022-08-03T16:42:34.460Z,32.60
2022-08-03T16:45:01.753Z,32.70
2022-08-03T16:47:28.858Z,32.65
2022-08-03T16:49:56.622Z,32.45
2022-08-03T16:52:24.235Z,32.23
2022-08-03T16:54:53.258Z,32.16
2022-08-03T16:57:29.978Z,32.01
2022-08-03T17:00:09.880Z,32.04
2022-08-03T17:02:37.336Z,32.01
2022-08-03T17:05:04.887Z,31.82
2022-08-03T17:07:32.042Z,31.65
2022-08-03T17:10:00.453Z,31.78
2022-08-03T17:12:27.762Z,31.84
2022-08-03T17:14:57.393Z,31.67
2022-08-03T17:17:47.604Z,31.75
2022-08-03T17:20:18.976Z,31.41
2022-08-03T17:22:47.708Z,31.27
2022-08-03T17:25:21.844Z,31.18
2022-08-03T17:28:51.236Z,31.16
2022-08-03T17:31:23.382Z,30.92
2022-08-03T17:33:55.635Z,30.94
2022-08-03T17:36:41.810Z,31.10
2022-08-03T17:39:14.471Z,31.00
2022-08-03T17:41:49.190Z,31.06
2022-08-03T17:47:06.604Z,30.80
2022-08-03T17:49:39.766Z,30.69
2022-08-03T17:52:10.046Z,30.53
2022-08-03T17:55:50.347Z,30.45
2022-08-03T17:58:02.154Z,30.28
2022-08-03T18:00:45.246Z,30.10
2022-08-03T18:03:30.794Z,29.98
2022-08-03T18:06:28.574Z,29.89
2022-08-03T18:08:56.576Z,29.75
2022-08-03T18:11:24.154Z,29.72
2022-08-03T18:14:16.620Z,29.57
2022-08-03T18:16:44.879Z,29.44
2022-08-03T18:19:13.788Z,29.42
2022-08-03T18:24:29.606Z,29.27
2022-08-03T18:26:57.264Z,29.05
2022-08-03T18:29:24.447Z,28.93
2022-08-03T18:32:01.490Z,28.81
2022-08-03T18:34:32.863Z,28.69
2022-08-03T18:37:07.452Z,28.66
2022-08-03T18:39:49.564Z,28.59
2022-08-03T18:42:19.350Z,28.47
2022-08-03T18:44:54.021Z,28.42
2022-08-03T18:47:25.902Z,28.37
2022-08-03T18:49:57.534Z,28.21
2022-08-03T18:52:52.678Z,28.18
2022-08-03T18:55:32.791Z,28.17
2022-08-03T18:58:06.398Z,28.10
2022-08-03T19:03:22.961Z,28.10
2022-08-03T19:06:19.059Z,27.92
2022-08-03T19:08:53.380Z,27.74
2022-08-03T19:11:27.939Z,27.67
2022-08-03T19:13:56.647Z,27.62
2022-08-03T19:16:28.621Z,27.49
2022-08-03T19:18:56.997Z,27.42
2022-08-03T19:21:27.423Z,27.48
2022-08-03T19:23:54.533Z,27.31
2022-08-03T19:26:31.048Z,27.25
2022-08-03T19:28:58.814Z,27.23
2022-08-03T19:31:30.949Z,27.13
2022-08-03T19:34:14.344Z,27.06
2022-08-03T19:36:43.969Z,27.02
2022-08-03T19:39:12.563Z,26.92
2022-08-03T19:41:41.964Z,26.92
2022-08-03T19:44:11.422Z,26.74
2022-08-03T19:47:04.859Z,26.63
2022-08-03T19:50:06.045Z,26.60
2022-08-03T19:52:24.351Z,26.52
2022-08-03T19:55:00.398Z,26.46
2022-08-03T19:57:28.520Z,26.44
2022-08-03T19:59:56.233Z,26.45
2022-08-03T20:02:26.985Z,26.48
2022-08-03T20:04:57.995Z,26.50
2022-08-03T20:07:28.079Z,26.52
2022-08-03T20:09:56.724Z,26.51
2022-08-03T20:12:27.776Z,26.50
2022-08-03T20:14:59.348Z,26.44
2022-08-03T20:17:54.537Z,26.32
2022-08-03T20:20:14.284Z,26.24
2022-08-03T20:22:43.021Z,26.17
2022-08-03T20:25:12.882Z,26.11
2022-08-03T20:28:06.870Z,26.04
2022-08-03T20:30:35.642Z,26.02
2022-08-03T20:33:03.114Z,25.96
2022-08-03T20:35:30.773Z,25.96
2022-08-03T20:37:59.268Z,25.95
2022-08-03T20:40:27.354Z,25.93
2022-08-03T20:42:55.486Z,25.86
2022-08-03T20:45:59.883Z,25.80
2022-08-03T20:48:10.310Z,25.68
2022-08-03T20:50:40.734Z,25.57
2022-08-03T20:53:12.085Z,25.49
2022-08-03T20:58:26.587Z,25.33
2022-08-03T21:00:53.753Z,25.29
2022-08-03T21:03:20.842Z,25.26
2022-08-03T21:05:51.875Z,25.19
2022-08-03T21:08:21.396Z,25.18
2022-08-03T21:10:49.670Z,25.14
2022-08-03T21:12:55.011Z,30.97
2022-08-03T21:13:00.965Z,28.03
2022-08-03T21:13:04.309Z,29.35
2022-08-03T21:13:07.724Z,25.39
2022-08-03T21:13:29.397Z,25.10
2022-08-03T21:16:01.348Z,25.03
2022-08-03T21:18:44.774Z,24.95
2022-08-03T21:21:14.214Z,24.90
2022-08-03T21:23:48.790Z,24.87
2022-08-03T21:26:18.123Z,24.88
2022-08-03T21:28:45.701Z,24.78
2022-08-03T21:31:13.258Z,24.69
2022-08-03T21:33:40.902Z,24.68
2022-08-03T21:36:11.507Z,24.64
2022-08-03T21:38:39.066Z,24.59
2022-08-03T21:41:07.891Z,24.54
2022-08-03T21:43:34.986Z,24.42
2022-08-03T21:46:02.939Z,24.33
2022-08-03T21:48:37.947Z,24.40
2022-08-03T21:51:08.296Z,24.25
2022-08-03T21:54:02.823Z,24.15
2022-08-03T21:56:22.776Z,24.06
2022-08-03T21:58:51.568Z,24.02
2022-08-03T22:01:20.041Z,23.98
2022-08-03T22:03:51.142Z,24.06
2022-08-03T22:06:21.702Z,24.04
2022-08-03T22:08:50.394Z,23.96
2022-08-03T22:11:17.506Z,23.94
2022-08-03T22:13:44.786Z,23.90
2022-08-03T22:16:12.190Z,23.85
2022-08-03T22:18:40.003Z,23.78
2022-08-03T22:21:07.660Z,23.75
2022-08-03T22:23:37.142Z,23.67
2022-08-03T22:26:04.350Z,23.53
2022-08-03T22:28:31.405Z,23.44
2022-08-03T22:30:58.841Z,23.38
2022-08-03T22:33:25.937Z,23.28
2022-08-03T22:35:55.518Z,23.18
2022-08-03T22:38:22.902Z,23.11
2022-08-03T22:40:51.024Z,23.05
2022-08-03T22:43:21.846Z,22.96
2022-08-03T22:46:11.253Z,22.95
2022-08-03T22:48:41.129Z,22.89
2022-08-03T22:51:09.454Z,22.87
2022-08-03T22:53:36.559Z,22.76
2022-08-03T22:56:03.959Z,22.73
2022-08-03T22:58:31.319Z,22.72
2022-08-03T23:01:01.833Z,22.71
2022-08-03T23:03:59.216Z,22.70
2022-08-03T23:06:18.528Z,22.67
2022-08-03T23:08:45.878Z,22.56
2022-08-03T23:11:12.979Z,22.48
2022-08-03T23:13:40.360Z,22.46
2022-08-03T23:16:07.504Z,22.44
2022-08-03T23:18:37.200Z,22.47
2022-08-03T23:21:11.142Z,22.49
2022-08-03T23:23:44.211Z,22.52
2022-08-03T23:26:13.110Z,22.51
2022-08-03T23:28:40.175Z,22.54
2022-08-03T23:31:07.817Z,22.53
2022-08-03T23:33:35.194Z,22.53
2022-08-03T23:36:28.571Z,22.47
2022-08-03T23:38:53.092Z,22.39
2022-08-03T23:41:20.339Z,22.34
2022-08-03T23:43:51.757Z,22.30
2022-08-03T23:46:21.955Z,22.34
2022-08-03T23:48:49.700Z,22.36
2022-08-03T23:51:40.076Z,22.31
2022-08-03T23:54:26.648Z,22.26
2022-08-03T23:57:05.674Z,22.20
2022-08-03T23:59:35.932Z,22.16
